Time;durP1;ratioP1;P1;durP2;ratioP2;P2;SDS_P1;SDS_P2;PMS_P1;PMS_P2;Temp;Humidity;BMP_temperature;BMP_pressure;BME280_temperature;BME280_humidity;BME280_pressure;Samples;Min_cycle;Max_cycle;Signal;HPM_P1;HPM_P2
2021/10/16 00:01:51;;;;;;;9.95;5.08;;;;;;;10.10;85.05;100590.44;1653406;83;27386;-78
2021/10/16 00:04:18;;;;;;;10.85;4.53;;;;;;;10.09;84.99;100591.47;1701211;82;26487;-78
2021/10/16 00:06:46;;;;;;;10.58;4.42;;;;;;;10.11;85.07;100593.48;1661957;84;25854;-78
2021/10/16 00:09:12;;;;;;;10.03;4.22;;;;;;;10.12;85.14;100599.14;1688275;84;25851;-78
2021/10/16 00:11:40;;;;;;;10.95;4.78;;;;;;;10.15;85.02;100599.29;1725669;82;25733;-78
2021/10/16 00:14:07;;;;;;;12.82;5.12;;;;;;;10.16;85.19;100602.30;1685324;83;27593;-78
2021/10/16 00:16:34;;;;;;;13.25;5.35;;;;;;;10.15;85.05;100601.47;1612506;85;25759;-77
2021/10/16 00:19:01;;;;;;;16.17;6.00;;;;;;;10.15;85.09;100604.14;1700934;83;25828;-78
2021/10/16 00:21:28;;;;;;;13.75;5.10;;;;;;;10.13;85.06;100606.17;1651343;83;26513;-78
2021/10/16 00:23:55;;;;;;;11.18;5.10;;;;;;;10.12;85.16;100606.34;1701158;82;25826;-78
2021/10/16 00:26:22;;;;;;;11.40;4.37;;;;;;;10.12;85.30;100600.48;1682718;83;28245;-78
2021/10/16 00:28:49;;;;;;;13.40;5.30;;;;;;;10.11;85.33;100608.20;1696427;83;25900;-78
2021/10/16 00:31:16;;;;;;;10.40;4.08;;;;;;;10.09;85.22;100603.52;1676523;83;25750;-77
2021/10/16 00:33:43;;;;;;;11.20;4.83;;;;;;;10.04;85.55;100604.06;1670707;83;26683;-78
2021/10/16 00:36:10;;;;;;;13.48;5.28;;;;;;;10.02;85.46;100600.73;1651448;83;25849;-78
2021/10/16 00:38:37;;;;;;;12.35;5.92;;;;;;;10.03;85.37;100608.23;1695551;83;27617;-78
2021/10/16 00:41:04;;;;;;;15.93;5.50;;;;;;;10.01;85.48;100612.94;1676923;83;26495;-78
2021/10/16 00:43:31;;;;;;;13.13;5.78;;;;;;;10.02;85.52;100619.47;1674540;83;25813;-77
2021/10/16 00:45:58;;;;;;;15.60;5.87;;;;;;;10.03;85.65;100615.77;1701140;81;26549;-77
2021/10/16 00:48:25;;;;;;;12.05;5.37;;;;;;;10.02;85.63;100615.45;1699472;83;25793;-78
2021/10/16 00:50:53;;;;;;;13.98;5.47;;;;;;;10.01;85.85;100619.63;1673982;83;27630;-78
2021/10/16 00:53:20;;;;;;;8.63;4.25;;;;;;;9.97;85.69;100621.02;1701249;82;25854;-78
2021/10/16 00:55:50;;;;;;;14.60;5.40;;;;;;;9.99;85.72;100631.02;1680827;83;25819;-78
2021/10/16 00:58:18;;;;;;;13.20;5.20;;;;;;;9.97;85.71;100621.84;1647089;84;25862;-78
2021/10/16 01:00:47;;;;;;;10.23;4.95;;;;;;;9.96;85.76;100629.57;1677293;83;25305;-78
2021/10/16 01:03:14;;;;;;;12.93;4.72;;;;;;;9.94;85.85;100623.53;1674630;83;27510;-78
2021/10/16 01:05:41;;;;;;;13.43;5.35;;;;;;;9.94;85.83;100613.36;1725325;81;26508;-78
2021/10/16 01:08:11;;;;;;;12.05;5.40;;;;;;;9.93;85.89;100615.70;1663399;83;25857;-78
2021/10/16 01:10:39;;;;;;;13.95;4.60;;;;;;;9.93;85.87;100618.38;1699876;82;26048;-79
2021/10/16 01:13:06;;;;;;;12.93;5.00;;;;;;;9.93;86.08;100619.22;1694997;81;26461;-77
2021/10/16 01:15:34;;;;;;;11.30;4.10;;;;;;;9.92;85.90;100622.89;1725383;81;27544;-78
2021/10/16 01:18:01;;;;;;;9.85;4.50;;;;;;;9.91;85.84;100629.77;1663961;83;25452;-78
2021/10/16 01:20:31;;;;;;;10.40;5.15;;;;;;;9.92;85.94;100628.77;1695080;83;25786;-78
2021/10/16 01:22:58;;;;;;;12.30;5.28;;;;;;;9.89;85.77;100636.65;1705955;83;25885;-78
2021/10/16 01:25:25;;;;;;;16.23;5.95;;;;;;;9.90;85.80;100639.63;1678004;83;25959;-78
2021/10/16 01:27:54;;;;;;;7.20;4.45;;;;;;;9.90;85.85;100636.95;1677351;83;28281;-79
2021/10/16 01:30:24;;;;;;;13.03;5.80;;;;;;;9.89;85.71;100639.33;1696666;82;25759;-78
2021/10/16 01:32:51;;;;;;;13.08;5.72;;;;;;;9.90;85.73;100638.30;1699466;82;25821;-78
2021/10/16 01:35:19;;;;;;;9.88;5.10;;;;;;;9.91;85.73;100628.44;1674835;83;26403;-78
2021/10/16 01:37:49;;;;;;;12.07;4.53;;;;;;;9.90;85.80;100636.95;1672420;83;25908;-78
2021/10/16 01:40:18;;;;;;;12.80;5.03;;;;;;;9.87;85.97;100639.17;1725037;81;28367;-78
2021/10/16 01:42:48;;;;;;;9.83;4.17;;;;;;;9.88;85.88;100647.55;1695587;83;25935;-78
2021/10/16 01:45:19;;;;;;;14.03;5.10;;;;;;;9.88;85.81;100644.86;1677098;83;25876;-79
2021/10/16 01:47:52;;;;;;;13.32;4.92;;;;;;;9.86;85.88;100637.00;1653357;83;25976;-78
2021/10/16 01:50:24;;;;;;;15.03;4.55;;;;;;;9.87;85.88;100645.36;1706298;81;26457;-78
2021/10/16 01:52:51;;;;;;;10.43;4.30;;;;;;;9.89;85.92;100647.84;1699870;83;27769;-78
2021/10/16 01:55:19;;;;;;;9.90;3.98;;;;;;;9.88;85.87;100645.67;1651472;83;26458;-78
2021/10/16 01:57:49;;;;;;;11.12;4.60;;;;;;;9.88;85.92;100652.89;1676615;83;25834;-78
2021/10/16 02:00:16;;;;;;;10.38;4.62;;;;;;;9.89;85.85;100654.53;1695469;83;25814;-78
2021/10/16 02:02:43;;;;;;;10.70;4.53;;;;;;;9.89;85.88;100655.38;1677071;82;25922;-78
2021/10/16 02:05:27;;;;;;;12.10;4.20;;;;;;;9.89;85.86;100658.05;1679061;83;27701;-78
2021/10/16 02:08:08;;;;;;;12.53;4.60;;;;;;;9.89;85.84;100660.73;1629562;83;25866;-78
2021/10/16 02:10:36;;;;;;;15.40;4.45;;;;;;;9.91;85.94;100673.41;1700995;82;25840;-78
2021/10/16 02:13:05;;;;;;;13.15;4.58;;;;;;;9.90;85.75;100667.73;1697275;83;25778;-78
2021/10/16 02:15:34;;;;;;;11.30;4.78;;;;;;;9.91;85.85;100668.56;1725098;80;25968;-79
2021/10/16 02:18:09;;;;;;;9.73;5.22;;;;;;;9.91;85.78;100671.23;1656879;84;28083;-78
2021/10/16 02:20:36;;;;;;;13.53;5.30;;;;;;;9.90;85.76;100681.11;1662969;84;26518;-78
2021/10/16 02:23:03;;;;;;;12.13;4.47;;;;;;;9.89;85.74;100678.13;1686578;84;25835;-77
2021/10/16 02:25:32;;;;;;;12.93;5.35;;;;;;;9.90;85.76;100684.31;1724493;82;25910;-78
2021/10/16 02:27:59;;;;;;;15.95;5.65;;;;;;;9.90;85.81;100680.30;1657694;81;25893;-78
2021/10/16 02:30:27;;;;;;;11.85;4.78;;;;;;;9.89;85.85;100687.98;1682882;83;27521;-78
2021/10/16 02:32:54;;;;;;;14.55;6.08;;;;;;;9.88;85.75;100692.49;1725358;82;25964;-78
2021/10/16 02:35:21;;;;;;;11.20;5.83;;;;;;;9.86;85.90;100689.67;1711859;81;25740;-78
2021/10/16 02:37:48;;;;;;;13.25;5.92;;;;;;;9.85;85.84;100700.06;1627127;85;25825;-78
2021/10/16 02:40:16;;;;;;;16.02;5.80;;;;;;;9.84;85.92;100697.04;1705793;82;26433;-78
2021/10/16 02:42:43;;;;;;;17.27;6.90;;;;;;;9.84;85.94;100690.35;1677361;83;28089;-78
2021/10/16 02:45:11;;;;;;;15.38;7.00;;;;;;;9.84;85.94;100695.20;1725569;81;25993;-78
2021/10/16 02:47:38;;;;;;;18.52;8.35;;;;;;;9.82;86.05;100687.03;1657799;83;25931;-78
2021/10/16 02:50:05;;;;;;;19.35;7.58;;;;;;;9.82;85.85;100701.24;1699461;83;26489;-78
2021/10/16 02:52:32;;;;;;;16.05;7.50;;;;;;;9.83;85.90;100692.72;1677592;83;26064;-78
2021/10/16 02:54:59;;;;;;;16.35;8.45;;;;;;;9.82;85.94;100695.05;1677362;83;28239;-78
2021/10/16 02:57:28;;;;;;;20.12;8.70;;;;;;;9.82;85.94;100698.57;1674635;83;25956;-78
2021/10/16 02:59:55;;;;;;;14.15;8.63;;;;;;;9.82;85.83;100706.59;1701115;82;25714;-78
2021/10/16 03:02:22;;;;;;;15.18;7.35;;;;;;;9.83;85.87;100709.61;1694982;83;25979;-78
2021/10/16 03:04:49;;;;;;;14.03;7.50;;;;;;;9.82;85.79;100711.95;1725679;81;25781;-78
2021/10/16 03:07:17;;;;;;;16.37;7.40;;;;;;;9.83;85.89;100709.61;1632559;83;28238;-78
2021/10/16 03:09:44;;;;;;;24.87;8.35;;;;;;;9.84;85.83;100705.06;1674404;83;25833;-78
2021/10/16 03:12:13;;;;;;;13.85;6.95;;;;;;;9.81;85.77;100704.95;1700522;83;25893;-78
2021/10/16 03:14:42;;;;;;;15.60;7.78;;;;;;;9.81;85.76;100709.45;1701201;80;25992;-78
2021/10/16 03:17:09;;;;;;;14.75;7.03;;;;;;;9.82;85.76;100711.11;1676166;83;25944;-78
2021/10/16 03:19:36;;;;;;;18.17;6.83;;;;;;;9.82;85.82;100713.78;1677706;83;27556;-78
2021/10/16 03:22:05;;;;;;;15.20;7.22;;;;;;;9.81;85.73;100710.30;1702945;83;25802;-78
2021/10/16 03:24:35;;;;;;;19.15;6.87;;;;;;;9.78;85.72;100713.31;1675642;83;25912;-78
2021/10/16 03:27:04;;;;;;;13.25;6.47;;;;;;;9.77;85.85;100710.83;1696339;82;26043;-77
2021/10/16 03:29:31;;;;;;;11.68;6.60;;;;;;;9.74;85.96;100710.67;1697772;82;25857;-78
2021/10/16 03:31:59;;;;;;;15.72;6.92;;;;;;;9.72;85.83;100719.39;1698901;83;27518;-78
2021/10/16 03:34:27;;;;;;;15.32;6.20;;;;;;;9.71;85.85;100718.23;1697044;82;26558;-78
2021/10/16 03:36:56;;;;;;;15.58;7.45;;;;;;;9.70;85.84;100720.57;1676172;83;25857;-78
2021/10/16 03:39:23;;;;;;;16.60;6.60;;;;;;;9.70;85.80;100725.92;1695072;83;25956;-78
2021/10/16 03:41:50;;;;;;;14.73;6.28;;;;;;;9.69;85.82;100725.08;1653082;83;25372;-78
2021/10/16 03:44:18;;;;;;;14.93;6.33;;;;;;;9.69;85.80;100727.75;1676214;83;27887;-78
2021/10/16 03:46:45;;;;;;;15.08;6.67;;;;;;;9.68;85.74;100725.27;1677280;83;25916;-78
2021/10/16 03:49:12;;;;;;;14.73;5.75;;;;;;;9.69;85.77;100725.58;1671837;83;26051;-78
2021/10/16 03:51:40;;;;;;;13.68;6.20;;;;;;;9.69;85.83;100728.25;1670710;83;26443;-78
2021/10/16 03:54:07;;;;;;;11.40;5.90;;;;;;;9.69;85.69;100734.44;1725292;81;25887;-78
2021/10/16 03:56:34;;;;;;;20.05;5.70;;;;;;;9.69;85.63;100730.43;1677000;83;28218;-78
2021/10/16 03:59:01;;;;;;;11.80;6.25;;;;;;;9.68;85.63;100731.95;1704891;82;25340;-78
2021/10/16 04:01:28;;;;;;;18.87;6.95;;;;;;;9.67;85.71;100728.44;1701502;82;26430;-77
2021/10/16 04:03:56;;;;;;;13.45;6.47;;;;;;;9.66;85.66;100732.64;1739074;82;26023;-78
2021/10/16 04:06:23;;;;;;;17.02;7.20;;;;;;;9.65;85.63;100734.97;1703328;82;25912;-78
2021/10/16 04:08:50;;;;;;;13.83;7.17;;;;;;;9.64;85.73;100735.50;1704565;83;28224;-78
2021/10/16 04:11:19;;;;;;;17.37;7.35;;;;;;;9.64;85.73;100736.00;1698448;83;25660;-78
2021/10/16 04:13:46;;;;;;;17.67;8.03;;;;;;;9.61;85.97;100731.83;1677149;83;25851;-78
2021/10/16 04:16:13;;;;;;;18.90;7.37;;;;;;;9.59;86.13;100737.86;1628541;83;26415;-78
2021/10/16 04:18:41;;;;;;;16.30;8.10;;;;;;;9.57;86.28;100741.22;1705897;82;26531;-78
2021/10/16 04:21:08;;;;;;;17.17;7.78;;;;;;;9.58;86.16;100745.54;1706102;81;28188;-78
2021/10/16 04:23:35;;;;;;;15.05;7.40;;;;;;;9.59;86.19;100743.21;1655066;83;25855;-77
2021/10/16 04:26:03;;;;;;;17.27;7.72;;;;;;;9.61;86.23;100743.86;1660834;83;25976;-78
2021/10/16 04:28:30;;;;;;;17.17;8.55;;;;;;;9.63;86.26;100747.69;1660175;83;26656;-78
2021/10/16 04:31:05;;;;;;;15.72;8.05;;;;;;;9.60;86.22;100744.86;1698202;83;25896;-79
2021/10/16 04:35:55;;;;;;;12.82;7.15;;;;;;;9.62;86.39;100747.38;1816213;78;25647;-78
2021/10/16 04:38:22;;;;;;;18.20;6.85;;;;;;;9.58;86.49;100758.10;1769621;79;26051;-78
2021/10/16 04:40:49;;;;;;;17.20;7.42;;;;;;;9.59;86.56;100761.09;1771842;80;27519;-77
2021/10/16 04:43:16;;;;;;;15.08;7.35;;;;;;;9.58;86.49;100752.22;1771646;79;25888;-78
2021/10/16 04:45:49;;;;;;;12.70;7.17;;;;;;;9.59;86.42;100762.42;1774177;79;25814;-77
2021/10/16 04:48:14;;;;;;;14.28;6.95;;;;;;;9.58;86.40;100764.79;1775488;80;25757;-79
2021/10/16 04:50:41;;;;;;;16.48;8.23;;;;;;;9.59;86.42;100761.93;1718098;80;25841;-78
2021/10/16 04:53:10;;;;;;;12.03;6.45;;;;;;;9.60;86.32;100757.42;1718710;82;27545;-78
2021/10/16 04:55:38;;;;;;;15.43;6.65;;;;;;;9.59;86.28;100765.10;1701402;83;25937;-78
2021/10/16 04:58:05;;;;;;;16.12;7.25;;;;;;;9.58;86.06;100766.13;1711474;82;25962;-77
2021/10/16 05:00:37;;;;;;;11.85;5.53;;;;;;;9.56;85.64;100768.14;1699702;80;25977;-78
2021/10/16 05:03:07;;;;;;;13.78;5.70;;;;;;;9.54;85.63;100764.81;1761755;80;25742;-78
2021/10/16 05:05:36;;;;;;;14.85;5.97;;;;;;;9.55;85.49;100769.98;1735941;81;27637;-78
2021/10/16 05:08:06;;;;;;;17.02;6.45;;;;;;;9.55;85.49;100771.31;1708428;83;25909;-77
2021/10/16 05:10:34;;;;;;;11.28;5.10;;;;;;;9.56;85.33;100769.48;1688670;83;25882;-78
2021/10/16 05:13:02;;;;;;;11.97;5.50;;;;;;;9.55;85.37;100767.30;1706111;83;25810;-78
2021/10/16 05:15:29;;;;;;;10.30;5.17;;;;;;;9.56;85.31;100770.81;1748789;80;25827;-78
2021/10/16 05:18:00;;;;;;;10.68;5.97;;;;;;;9.56;85.33;100765.47;1693816;80;27494;-78
2021/10/16 05:20:32;;;;;;;17.45;6.95;;;;;;;9.57;85.40;100763.95;1691103;80;26000;-78
2021/10/16 05:23:02;;;;;;;16.25;6.10;;;;;;;9.61;85.38;100768.42;1736225;80;26233;-78
2021/10/16 05:25:29;;;;;;;16.48;6.00;;;;;;;9.60;85.22;100771.60;1683512;83;25951;-78
2021/10/16 05:27:56;;;;;;;14.60;6.10;;;;;;;9.63;85.20;100775.27;1680664;83;26716;-78
2021/10/16 05:30:23;;;;;;;13.45;5.20;;;;;;;9.63;84.91;100781.95;1655187;84;28476;-78
2021/10/16 05:32:51;;;;;;;12.78;5.33;;;;;;;9.63;84.87;100789.14;1683614;83;25827;-78
2021/10/16 05:35:19;;;;;;;12.25;5.08;;;;;;;9.63;84.70;100791.81;1685581;83;25927;-78
2021/10/16 05:37:46;;;;;;;12.80;5.25;;;;;;;9.63;84.71;100789.98;1680216;83;25817;-78
2021/10/16 05:40:13;;;;;;;12.58;4.90;;;;;;;9.62;84.55;100796.36;1642620;84;25998;-78
2021/10/16 05:42:42;;;;;;;10.75;4.08;;;;;;;9.62;84.43;100791.01;1727844;80;28197;-78
2021/10/16 05:45:09;;;;;;;10.93;3.87;;;;;;;9.64;84.34;100797.52;1713772;81;25829;-78
2021/10/16 05:47:38;;;;;;;12.40;4.62;;;;;;;9.63;84.03;100796.67;1711746;82;25829;-78
2021/10/16 05:50:07;;;;;;;10.50;4.00;;;;;;;9.61;83.67;100808.05;1662432;83;26529;-78
2021/10/16 05:52:36;;;;;;;11.05;3.15;;;;;;;9.59;83.59;100806.05;1701719;83;25990;-78
2021/10/16 05:55:06;;;;;;;12.45;3.67;;;;;;;9.57;83.17;100805.40;1716108;82;27449;-78
2021/10/16 05:57:33;;;;;;;14.38;3.47;;;;;;;9.56;82.90;100809.59;1673640;83;26533;-78
2021/10/16 06:00:01;;;;;;;13.53;4.35;;;;;;;9.55;83.12;100807.41;1671381;83;25917;-78
2021/10/16 06:02:30;;;;;;;11.28;3.58;;;;;;;9.57;83.16;100821.45;1723627;83;25798;-78
2021/10/16 06:04:57;;;;;;;12.05;3.80;;;;;;;9.60;83.14;100825.62;1722997;83;25314;-78
2021/10/16 06:07:24;;;;;;;12.88;3.62;;;;;;;9.60;83.13;100832.30;1691168;83;28104;-77
2021/10/16 06:09:52;;;;;;;11.95;3.47;;;;;;;9.62;83.27;100838.31;1693112;81;25869;-78
2021/10/16 06:12:19;;;;;;;11.28;3.85;;;;;;;9.62;83.31;100841.83;1749494;81;26574;-78
2021/10/16 06:14:46;;;;;;;15.88;5.33;;;;;;;9.65;83.38;100844.63;1688200;83;26701;-78
2021/10/16 06:17:21;;;;;;;12.07;5.22;;;;;;;9.65;83.47;100848.64;1724408;81;25873;-78
2021/10/16 06:19:48;;;;;;;15.30;4.95;;;;;;;9.65;83.71;100848.14;1693174;81;27537;-78
2021/10/16 06:22:15;;;;;;;17.52;5.60;;;;;;;9.64;83.82;100845.16;1705067;83;25821;-78
2021/10/16 06:24:43;;;;;;;13.80;5.72;;;;;;;9.64;83.94;100849.17;1714099;82;25865;-78
2021/10/16 06:27:10;;;;;;;18.10;6.03;;;;;;;9.66;84.03;100857.84;1708915;82;25598;-79
2021/10/16 06:29:37;;;;;;;13.88;7.00;;;;;;;9.68;84.17;100860.34;1670217;82;25864;-78
2021/10/16 06:32:04;;;;;;;17.07;6.53;;;;;;;9.70;84.17;100873.88;1742380;81;27611;-78
2021/10/16 06:34:32;;;;;;;17.65;7.05;;;;;;;9.70;84.30;100870.36;1737869;81;25882;-78
2021/10/16 06:36:59;;;;;;;16.30;5.80;;;;;;;9.73;84.39;100873.50;1684671;84;25810;-78
2021/10/16 06:39:27;;;;;;;19.85;6.80;;;;;;;9.76;84.18;100876.34;1626742;83;25976;-78
2021/10/16 06:41:56;;;;;;;17.17;6.37;;;;;;;9.75;83.91;100882.72;1696038;83;25756;-78
2021/10/16 06:44:41;;;;;;;16.32;6.70;;;;;;;9.76;84.21;100881.20;1695497;84;27557;-79
2021/10/16 06:47:13;;;;;;;15.40;6.22;;;;;;;9.81;84.17;100888.20;1680743;81;26001;-79
2021/10/16 06:49:41;;;;;;;19.55;6.40;;;;;;;9.85;84.17;100891.35;1702936;83;25804;-79
2021/10/16 06:52:08;;;;;;;21.68;7.17;;;;;;;9.89;84.04;100889.98;1712205;82;25979;-79
2021/10/16 06:54:36;;;;;;;19.87;8.05;;;;;;;9.92;83.81;100893.67;1738763;81;25316;-78
2021/10/16 06:57:03;;;;;;;18.23;7.85;;;;;;;9.91;83.71;100891.48;1702900;84;27536;-77
2021/10/16 06:59:31;;;;;;;19.82;6.45;;;;;;;9.92;83.81;100902.50;1659634;82;25922;-78
2021/10/16 07:01:58;;;;;;;16.85;6.97;;;;;;;9.92;82.95;100905.18;1730430;81;26485;-78
2021/10/16 07:04:29;;;;;;;13.88;5.87;;;;;;;9.88;83.05;100904.39;1750748;80;25949;-79
2021/10/16 07:06:58;;;;;;;19.95;5.53;;;;;;;9.85;82.76;100900.22;1694025;81;25862;-78
2021/10/16 07:09:27;;;;;;;12.60;5.03;;;;;;;9.81;82.20;100905.59;1726491;81;27378;-78
2021/10/16 07:11:55;;;;;;;15.93;4.10;;;;;;;9.82;82.42;100908.58;1754814;81;25779;-79
2021/10/16 07:14:22;;;;;;;11.93;4.12;;;;;;;9.83;81.93;100912.09;1742542;81;26371;-79
2021/10/16 07:16:49;;;;;;;15.95;5.28;;;;;;;9.82;81.80;100912.59;1702169;82;25912;-79
2021/10/16 07:19:16;;;;;;;13.13;3.90;;;;;;;9.85;81.77;100908.75;1681200;81;25858;-79
2021/10/16 07:21:43;;;;;;;18.05;5.00;;;;;;;9.88;81.60;100911.08;1723059;81;27530;-78
2021/10/16 07:24:11;;;;;;;14.18;4.92;;;;;;;9.87;81.21;100914.25;1710739;82;25800;-78
2021/10/16 07:26:39;;;;;;;15.15;5.45;;;;;;;9.86;81.50;100922.44;1705357;80;25924;-78
2021/10/16 07:29:07;;;;;;;15.90;5.72;;;;;;;9.88;81.78;100921.78;1670651;82;25984;-78
2021/10/16 07:31:34;;;;;;;20.43;5.95;;;;;;;9.91;81.77;100927.61;1748712;80;25834;-77
2021/10/16 07:34:01;;;;;;;23.80;6.85;;;;;;;9.96;81.65;100927.09;1755051;80;28281;-78
2021/10/16 07:36:36;;;;;;;15.93;4.30;;;;;;;10.00;81.50;100933.27;1696188;80;26032;-78
2021/10/16 07:39:07;;;;;;;16.87;5.15;;;;;;;10.06;81.61;100931.72;1656419;83;26344;-78
2021/10/16 07:41:35;;;;;;;16.48;5.17;;;;;;;10.07;80.87;100942.77;1719349;81;25811;-80
2021/10/16 07:44:05;;;;;;;13.13;4.53;;;;;;;10.07;80.83;100945.44;1697409;82;26387;-78
2021/10/16 07:46:32;;;;;;;16.85;4.80;;;;;;;10.15;81.19;100935.22;1678536;84;27494;-78
2021/10/16 07:48:59;;;;;;;15.50;7.62;;;;;;;10.24;81.21;100945.72;1698647;82;25809;-78
2021/10/16 07:51:26;;;;;;;15.78;6.85;;;;;;;10.28;80.76;100951.05;1718690;82;25398;-78
2021/10/16 07:53:53;;;;;;;19.45;9.55;;;;;;;10.30;80.70;100953.53;1723352;82;25815;-78
2021/10/16 07:56:20;;;;;;;15.03;6.40;;;;;;;10.30;80.57;100956.22;1652898;82;26530;-78
2021/10/16 07:58:47;;;;;;;18.07;6.60;;;;;;;10.32;80.57;100956.87;1659132;83;28183;-78
2021/10/16 08:01:14;;;;;;;23.57;5.67;;;;;;;10.33;80.07;100954.01;1718886;82;25900;-78
2021/10/16 08:03:42;;;;;;;19.80;5.15;;;;;;;10.38;80.18;100959.68;1725194;82;25827;-78
2021/10/16 08:06:09;;;;;;;10.82;4.22;;;;;;;10.41;79.77;100961.17;1671579;82;26362;-78
2021/10/16 08:08:36;;;;;;;10.15;4.20;;;;;;;10.46;79.51;100967.66;1687600;82;25786;-77
2021/10/16 08:11:03;;;;;;;13.88;4.22;;;;;;;10.48;78.88;100958.94;1675451;83;28209;-78
2021/10/16 08:13:31;;;;;;;11.55;4.53;;;;;;;10.47;78.35;100954.61;1711429;83;25784;-79
2021/10/16 08:15:59;;;;;;;10.18;4.28;;;;;;;10.46;78.60;100959.62;1719186;82;26030;-79
2021/10/16 08:18:26;;;;;;;14.47;4.55;;;;;;;10.46;78.17;100961.45;1660069;83;25815;-79
2021/10/16 08:20:53;;;;;;;18.30;4.25;;;;;;;10.45;78.59;100964.66;1733277;81;25886;-78
2021/10/16 08:23:20;;;;;;;15.68;4.92;;;;;;;10.54;78.60;100964.11;1731539;80;27633;-78
2021/10/16 08:25:47;;;;;;;15.23;4.62;;;;;;;10.59;78.33;100962.55;1716822;82;25915;-78
2021/10/16 08:28:15;;;;;;;14.23;5.08;;;;;;;10.66;78.68;100963.52;1670590;83;25838;-78
2021/10/16 08:30:50;;;;;;;15.55;5.90;;;;;;;10.73;78.56;100966.31;1739289;81;26065;-78
2021/10/16 08:33:15;;;;;;;23.73;6.60;;;;;;;10.75;78.24;100967.81;1716657;81;25723;-78
2021/10/16 08:35:42;;;;;;;15.48;6.25;;;;;;;10.78;78.60;100972.79;1701010;82;28165;-78
2021/10/16 08:38:09;;;;;;;16.90;6.87;;;;;;;10.79;78.71;100975.81;1709822;83;25936;-78
2021/10/16 08:40:37;;;;;;;13.50;5.08;;;;;;;10.79;78.67;100972.30;1721357;81;26016;-79
2021/10/16 08:43:06;;;;;;;16.30;6.42;;;;;;;10.80;78.09;100974.78;1746500;81;25773;-78
2021/10/16 08:45:36;;;;;;;15.43;5.55;;;;;;;10.81;78.44;100979.15;1667534;81;25821;-78
2021/10/16 08:48:05;;;;;;;16.95;5.72;;;;;;;10.84;78.59;100978.77;1696033;82;27449;-79
2021/10/16 08:50:34;;;;;;;16.87;5.83;;;;;;;10.91;78.36;100980.73;1668932;84;25902;-78
2021/10/16 08:53:01;;;;;;;23.92;10.85;;;;;;;10.88;77.94;100984.09;1719190;82;25837;-78
2021/10/16 08:55:28;;;;;;;22.50;7.53;;;;;;;10.87;77.38;100982.94;1722272;82;26554;-79
2021/10/16 08:57:56;;;;;;;31.82;10.08;;;;;;;10.83;77.20;100983.82;1674508;82;25791;-79
2021/10/16 09:00:51;;;;;;;19.07;7.25;;;;;;;10.90;77.14;100985.28;1668427;83;28075;-78
2021/10/16 09:03:40;;;;;;;19.15;4.53;;;;;;;10.97;77.10;100993.44;1717569;82;25866;-78
2021/10/16 09:06:26;;;;;;;13.58;4.85;;;;;;;10.98;76.13;100988.38;1682080;83;25865;-78
2021/10/16 09:09:00;;;;;;;15.58;4.87;;;;;;;10.97;75.73;100992.09;1707220;82;26161;-78
2021/10/16 09:11:35;;;;;;;17.52;4.75;;;;;;;10.93;74.69;100988.92;1726759;81;25861;-78
2021/10/16 09:14:21;;;;;;;14.05;4.03;;;;;;;10.88;75.18;100998.83;1729440;82;28177;-79
2021/10/16 09:16:58;;;;;;;13.40;3.85;;;;;;;10.92;75.86;101000.67;1697220;82;25957;-79
2021/10/16 09:19:32;;;;;;;12.37;4.42;;;;;;;10.94;75.27;101001.33;1675101;83;25868;-78
2021/10/16 09:22:04;;;;;;;15.28;5.12;;;;;;;10.94;75.52;101005.84;1679271;82;25851;-78
2021/10/16 09:24:43;;;;;;;15.32;4.83;;;;;;;10.95;75.71;101006.99;1710749;82;26256;-79
2021/10/16 09:27:19;;;;;;;25.72;11.75;;;;;;;11.02;76.31;101011.13;1710687;83;27773;-79
2021/10/16 09:29:50;;;;;;;19.40;7.60;;;;;;;11.08;76.25;101016.61;1671803;83;25830;-78
2021/10/16 09:32:25;;;;;;;20.77;7.85;;;;;;;11.07;75.79;101014.96;1670220;83;25807;-78
2021/10/16 09:35:04;;;;;;;15.95;6.67;;;;;;;11.08;76.08;101017.11;1712055;83;25877;-79
2021/10/16 09:37:32;;;;;;;21.00;5.78;;;;;;;11.07;76.54;101016.30;1689224;84;25844;-78
2021/10/16 09:40:02;;;;;;;15.35;4.90;;;;;;;11.17;76.63;101020.06;1639852;85;27088;-79
2021/10/16 09:42:37;;;;;;;14.58;4.25;;;;;;;11.22;76.32;101022.55;1689904;84;25865;-79
2021/10/16 09:45:07;;;;;;;10.53;3.85;;;;;;;11.26;75.55;101017.64;1688829;84;25759;-79
2021/10/16 09:47:35;;;;;;;15.08;4.35;;;;;;;11.25;74.80;101021.33;1660529;83;26112;-79
2021/10/16 09:50:09;;;;;;;12.95;3.17;;;;;;;11.23;73.38;101022.02;1651917;84;26581;-79
2021/10/16 09:52:40;;;;;;;12.05;3.85;;;;;;;11.20;74.05;101023.23;1649339;84;27663;-79
2021/10/16 09:55:10;;;;;;;;;;;;;;;11.19;73.86;101025.58;1694455;84;25676;-79
2021/10/16 09:57:44;;;;;;;16.93;4.15;;;;;;;11.13;73.33;101026.30;1647022;84;26534;-78
2021/10/16 10:00:14;;;;;;;11.30;3.80;;;;;;;11.13;74.17;101032.16;1695953;84;25933;-78
2021/10/16 10:02:45;;;;;;;16.77;6.00;;;;;;;11.16;73.37;101031.28;1694872;84;25795;-78
2021/10/16 10:05:13;;;;;;;20.08;5.20;;;;;;;11.16;74.23;101035.84;1692901;84;28129;-79
2021/10/16 10:07:41;;;;;;;16.05;4.85;;;;;;;11.19;73.17;101039.48;1671773;84;25801;-79
2021/10/16 10:10:09;;;;;;;17.90;4.80;;;;;;;11.19;73.70;101038.14;1641881;84;25814;-79
2021/10/16 10:12:38;;;;;;;21.10;7.72;;;;;;;11.16;73.85;101040.67;1681373;84;25898;-79
2021/10/16 10:15:06;;;;;;;12.23;5.33;;;;;;;11.18;73.53;101044.53;1694152;84;25710;-78
2021/10/16 10:17:35;;;;;;;13.10;4.72;;;;;;;11.11;72.32;101046.25;1647394;84;27394;-78
2021/10/16 10:20:06;;;;;;;13.58;4.95;;;;;;;11.02;73.10;101046.83;1693828;84;25780;-79
2021/10/16 10:22:36;;;;;;;15.32;5.17;;;;;;;11.02;73.69;101045.98;1682713;84;25932;-78
2021/10/16 10:25:23;;;;;;;14.85;5.33;;;;;;;11.05;73.88;101041.61;1690905;84;25904;-79
2021/10/16 10:27:53;;;;;;;15.43;5.85;;;;;;;11.04;73.66;101036.75;1671341;84;25920;-79
2021/10/16 10:30:40;;;;;;;23.00;8.95;;;;;;;11.04;73.48;101038.09;1671239;84;27639;-78
2021/10/16 10:33:21;;;;;;;18.57;7.37;;;;;;;11.01;73.58;101041.16;1694835;82;25748;-79
2021/10/16 10:36:08;;;;;;;21.73;6.40;;;;;;;10.99;73.45;101043.67;1722240;82;25796;-78
2021/10/16 10:38:39;;;;;;;16.85;7.03;;;;;;;10.93;73.66;101045.20;1660951;84;25864;-78
2021/10/16 10:41:31;;;;;;;28.47;12.58;;;;;;;10.91;74.11;101045.89;1685393;83;25949;-79
2021/10/16 10:44:00;;;;;;;29.20;11.08;;;;;;;10.88;74.18;101041.72;1688948;83;28222;-79
2021/10/16 10:46:29;;;;;;;23.65;10.05;;;;;;;10.90;74.41;101036.20;1663979;84;25957;-79
2021/10/16 10:49:12;;;;;;;24.65;11.88;;;;;;;10.95;74.61;101036.48;1665047;83;25798;-80
2021/10/16 10:51:39;;;;;;;27.93;13.72;;;;;;;10.99;74.38;101032.95;1648721;84;25896;-79
2021/10/16 10:54:13;;;;;;;26.17;12.37;;;;;;;10.98;74.31;101036.13;1693965;84;26609;-79
2021/10/16 10:56:45;;;;;;;18.55;8.63;;;;;;;10.96;74.34;101040.84;1699292;84;27464;-79
2021/10/16 10:59:18;;;;;;;19.85;8.88;;;;;;;10.96;74.57;101038.66;1643435;84;25906;-79
2021/10/16 11:01:54;;;;;;;22.67;8.18;;;;;;;10.93;74.36;101041.72;1686716;83;25926;-79
2021/10/16 11:04:51;;;;;;;24.75;9.10;;;;;;;10.85;74.26;101042.59;1673593;84;26004;-79
2021/10/16 11:07:36;;;;;;;14.53;6.70;;;;;;;10.84;74.66;101051.13;1701160;84;26408;-79
2021/10/16 11:10:04;;;;;;;17.92;7.35;;;;;;;10.88;74.54;101049.45;1632314;82;27402;-79
2021/10/16 11:12:35;;;;;;;18.35;7.30;;;;;;;10.86;74.70;101046.95;1672904;84;26003;-79
2021/10/16 11:15:04;;;;;;;18.12;7.37;;;;;;;10.88;74.11;101043.59;1674423;84;25839;-79
2021/10/16 11:17:42;;;;;;;15.50;7.95;;;;;;;10.87;74.06;101039.22;1683920;84;26170;-80
2021/10/16 11:20:14;;;;;;;17.90;7.17;;;;;;;10.90;74.33;101040.72;1683319;83;25790;-79
2021/10/16 11:22:54;;;;;;;23.52;9.65;;;;;;;10.90;74.26;101048.76;1660539;84;27438;-79
2021/10/16 11:25:25;;;;;;;27.90;11.10;;;;;;;10.86;74.12;101049.10;1701158;83;26014;-79
2021/10/16 11:28:08;;;;;;;22.30;10.98;;;;;;;10.79;73.68;101044.64;1685854;84;25783;-78
2021/10/16 11:30:39;;;;;;;23.70;9.28;;;;;;;10.73;73.80;101049.38;1648949;83;25844;-79
2021/10/16 11:33:13;;;;;;;18.07;8.88;;;;;;;10.70;73.98;101052.39;1690265;83;26642;-79
2021/10/16 11:35:43;;;;;;;17.42;7.92;;;;;;;10.72;74.38;101050.37;1701250;82;28172;-79